Time;durP1;ratioP1;P1;durP2;ratioP2;P2;SDS_P1;SDS_P2;PMS_P1;PMS_P2;Temp;Humidity;BMP_temperature;BMP_pressure;BME280_temperature;BME280_humidity;BME280_pressure;Samples;Min_cycle;Max_cycle;Signal;HPM_P1;HPM_P2
2023/10/04 06:14:08;;;;;;;33.90;26.15;;;;;;;;;;5962003;22;20157;-86
2023/10/04 06:16:33;;;;;;;32.22;25.02;;;;;;;;;;5053436;28;20071;-84
2023/10/04 06:18:58;;;;;;;31.27;24.42;;;;;;;;;;5053671;28;20068;-86
2023/10/04 06:21:24;;;;;;;35.15;27.15;;;;;;;;;;5035433;28;20064;-88
2023/10/04 06:23:49;;;;;;;33.17;25.55;;;;;;;;;;5037138;28;20025;-86
2023/10/04 06:26:16;;;;;;;37.92;27.52;;;;;;;;;;5053311;28;20025;-87
2023/10/04 06:28:43;;;;;;;35.85;27.13;;;;;;;;;;5051779;28;20061;-85
2023/10/04 06:31:08;;;;;;;34.22;25.95;;;;;;;;;;5051714;28;20021;-87
2023/10/04 06:33:34;;;;;;;31.80;25.48;;;;;;;;;;5043317;28;20017;-86
2023/10/04 06:36:00;;;;;;;37.85;29.50;;;;;;;;;;5040826;28;20029;-86
2023/10/04 06:38:25;;;;;;;37.88;29.05;;;;;;;;;;5034273;28;20104;-85
2023/10/04 06:40:51;;;;;;;36.65;27.38;;;;;;;;;;5045968;28;20037;-90
2023/10/04 06:43:16;;;;;;;30.63;24.45;;;;;;;;;;5053608;28;20017;-86
2023/10/04 06:45:41;;;;;;;30.73;23.98;;;;;;;;;;5057334;28;20090;-86
2023/10/04 06:48:09;;;;;;;31.23;24.42;;;;;;;;;;5054420;28;20025;-86
2023/10/04 06:50:35;;;;;;;27.65;23.17;;;;;;;;;;5037115;28;20033;-86
2023/10/04 06:53:02;;;;;;;29.90;23.92;;;;;;;;;;5037781;28;20083;-86
2023/10/04 06:55:30;;;;;;;26.58;22.85;;;;;;;;;;5035791;28;20068;-86
2023/10/04 06:57:55;;;;;;;34.72;25.45;;;;;;;;;;5035662;28;20025;-86
2023/10/04 07:00:26;;;;;;;35.38;25.02;;;;;;;;;;5037032;28;20372;-86
2023/10/04 07:02:58;;;;;;;30.48;24.33;;;;;;;;;;5035694;28;20032;-84
2023/10/04 07:05:31;;;;;;;29.00;22.00;;;;;;;;;;5037094;28;20553;-88
2023/10/04 07:07:57;;;;;;;29.83;23.92;;;;;;;;;;5036942;28;20028;-88
2023/10/04 07:10:24;;;;;;;27.88;21.35;;;;;;;;;;5037438;28;20101;-90
2023/10/04 07:12:56;;;;;;;28.50;22.83;;;;;;;;;;5035952;28;20053;-88
2023/10/04 07:15:38;;;;;;;28.92;23.58;;;;;;;;;;5035345;28;20057;-89
2023/10/04 07:18:06;;;;;;;30.17;22.02;;;;;;;;;;5036691;28;20103;-89
2023/10/04 07:20:32;;;;;;;28.48;21.10;;;;;;;;;;5036894;28;20029;-87
2023/10/04 08:58:16;;;;;;;19.83;15.63;;;;;;;;;;5063203;28;20053;-81
2023/10/04 09:00:43;;;;;;;18.90;15.25;;;;;;;;;;5054841;28;20391;-81
2023/10/04 09:03:10;;;;;;;17.58;13.80;;;;;;;;;;5054819;28;20413;-80
2023/10/04 09:05:36;;;;;;;17.25;13.25;;;;;;;;;;5054794;28;20025;-79
2023/10/04 09:08:04;;;;;;;16.42;12.88;;;;;;;;;;5054330;28;20429;-80
2023/10/04 09:10:33;;;;;;;16.05;13.13;;;;;;;;;;5054692;28;20043;-80
2023/10/04 09:13:01;;;;;;;15.30;13.40;;;;;;;;;;5054601;28;20108;-81
2023/10/04 09:15:27;;;;;;;18.38;12.98;;;;;;;;;;5054490;28;20025;-80
2023/10/04 09:17:56;;;;;;;15.45;11.07;;;;;;;;;;5054413;28;20033;-81
2023/10/04 09:20:29;;;;;;;15.82;11.93;;;;;;;;;;5054586;28;20025;-83
2023/10/04 09:22:54;;;;;;;14.32;11.05;;;;;;;;;;5054615;28;20021;-86
2023/10/04 09:25:20;;;;;;;15.05;10.88;;;;;;;;;;5054435;28;20021;-85
2023/10/04 09:27:55;;;;;;;13.93;11.93;;;;;;;;;;5054256;28;20039;-81
2023/10/04 09:30:23;;;;;;;14.60;11.48;;;;;;;;;;5054471;28;20108;-80
2023/10/04 09:32:51;;;;;;;19.70;13.40;;;;;;;;;;5054082;28;20032;-83
2023/10/04 09:35:20;;;;;;;14.48;11.77;;;;;;;;;;5053918;28;20036;-81
2023/10/04 09:37:47;;;;;;;13.50;11.98;;;;;;;;;;5052874;28;20057;-82
2023/10/04 09:40:15;;;;;;;14.30;11.35;;;;;;;;;;5054189;28;20029;-81
2023/10/04 09:42:45;;;;;;;15.45;11.75;;;;;;;;;;5053922;28;20021;-81
2023/10/04 09:45:12;;;;;;;16.92;12.95;;;;;;;;;;5053894;28;20025;-82
2023/10/04 09:47:38;;;;;;;20.35;12.77;;;;;;;;;;5053857;28;20028;-83
2023/10/04 09:50:10;;;;;;;16.58;12.25;;;;;;;;;;5053950;28;20025;-82
2023/10/04 09:52:38;;;;;;;16.50;12.18;;;;;;;;;;5053985;28;20021;-81
2023/10/04 09:55:05;;;;;;;17.33;12.63;;;;;;;;;;5053845;28;20059;-81
2023/10/04 09:57:35;;;;;;;17.38;12.95;;;;;;;;;;5053956;28;20072;-83
2023/10/04 10:00:01;;;;;;;15.90;12.15;;;;;;;;;;5052348;28;20028;-83
2023/10/04 10:02:31;;;;;;;15.35;11.98;;;;;;;;;;5053670;28;20023;-83
2023/10/04 10:04:58;;;;;;;14.88;12.30;;;;;;;;;;5053799;28;20048;-83
2023/10/04 10:07:31;;;;;;;13.38;11.32;;;;;;;;;;5054063;28;20036;-82
2023/10/04 10:10:04;;;;;;;17.73;13.10;;;;;;;;;;5053714;28;20420;-84
2023/10/04 10:12:31;;;;;;;14.18;11.77;;;;;;;;;;5053700;28;20056;-81
2023/10/04 10:15:01;;;;;;;15.52;12.40;;;;;;;;;;5053724;28;20022;-80
2023/10/04 10:17:27;;;;;;;16.35;12.65;;;;;;;;;;5053293;28;20537;-82
2023/10/04 10:19:55;;;;;;;20.02;14.98;;;;;;;;;;5052726;28;20029;-81
2023/10/04 10:22:20;;;;;;;18.10;14.07;;;;;;;;;;5053994;28;20082;-79
2023/10/04 10:25:10;;;;;;;18.92;14.35;;;;;;;;;;5052159;28;20410;-79
2023/10/04 10:27:36;;;;;;;18.23;14.90;;;;;;;;;;5053509;28;20032;-80
2023/10/04 10:30:07;;;;;;;18.70;14.77;;;;;;;;;;5053908;28;20445;-79
2023/10/04 10:32:33;;;;;;;18.25;15.00;;;;;;;;;;5052284;28;20028;-84
2023/10/04 10:35:07;;;;;;;16.52;14.25;;;;;;;;;;5053461;28;20468;-82
2023/10/04 10:37:38;;;;;;;20.27;14.88;;;;;;;;;;5053281;28;20472;-82
2023/10/04 10:40:13;;;;;;;19.48;15.05;;;;;;;;;;5053719;28;20521;-81
2023/10/04 10:43:10;;;;;;;17.67;14.77;;;;;;;;;;5053335;28;20464;-85
2023/10/04 10:45:36;;;;;;;18.30;14.90;;;;;;;;;;5053582;28;20025;-82
2023/10/04 16:58:39;;;;;;;19.50;17.13;;;;;;;;;;5034553;28;20124;-88
2023/10/04 17:01:04;;;;;;;18.85;17.02;;;;;;;;;;5054934;28;20029;-90
2023/10/04 17:03:30;;;;;;;23.80;20.80;;;;;;;;;;5053504;28;20032;-87
2023/10/04 17:05:55;;;;;;;20.85;18.73;;;;;;;;;;5054697;28;20025;-90
2023/10/04 17:08:20;;;;;;;19.70;17.70;;;;;;;;;;5053944;28;20025;-92
2023/10/04 17:10:46;;;;;;;20.60;18.33;;;;;;;;;;5054243;28;20025;-85
2023/10/04 17:13:12;;;;;;;19.17;17.17;;;;;;;;;;5055516;28;20028;-93
2023/10/04 17:15:38;;;;;;;19.92;17.90;;;;;;;;;;5055030;28;20041;-91
2023/10/04 17:18:04;;;;;;;21.77;17.20;;;;;;;;;;5053823;28;20534;-93
2023/10/04 17:20:29;;;;;;;19.67;17.58;;;;;;;;;;5055013;28;20036;-92
2023/10/04 17:22:54;;;;;;;19.73;17.77;;;;;;;;;;5055203;28;20068;-93
2023/10/04 17:25:20;;;;;;;20.30;18.17;;;;;;;;;;5053626;28;20021;-93
2023/10/04 17:27:45;;;;;;;19.20;17.08;;;;;;;;;;5053572;28;20036;-88
2023/10/04 17:30:19;;;;;;;20.15;17.85;;;;;;;;;;5053893;28;20025;-94
2023/10/04 17:32:45;;;;;;;18.90;17.10;;;;;;;;;;5053856;28;20025;-94
2023/10/04 17:35:17;;;;;;;18.65;16.65;;;;;;;;;;5056144;28;20031;-87
2023/10/04 17:37:43;;;;;;;17.70;16.00;;;;;;;;;;5054223;28;20028;-88
2023/10/04 17:40:13;;;;;;;21.45;17.00;;;;;;;;;;5053144;28;20021;-87
2023/10/04 17:42:39;;;;;;;19.20;17.20;;;;;;;;;;5054168;28;20075;-88
2023/10/04 17:45:06;;;;;;;20.77;18.50;;;;;;;;;;5054360;28;20025;-88
2023/10/04 17:47:32;;;;;;;19.10;17.13;;;;;;;;;;5054320;28;20029;-84
2023/10/04 17:49:59;;;;;;;18.55;16.65;;;;;;;;;;5054281;28;20089;-86
2023/10/04 17:52:25;;;;;;;19.88;17.48;;;;;;;;;;5054067;28;20041;-87
2023/10/04 17:54:52;;;;;;;18.90;17.00;;;;;;;;;;5054222;28;20021;-87
2023/10/04 17:57:17;;;;;;;18.85;17.02;;;;;;;;;;5054022;28;20060;-85
2023/10/04 17:59:43;;;;;;;19.15;17.25;;;;;;;;;;5053925;28;20537;-88
2023/10/04 18:02:09;;;;;;;18.73;16.48;;;;;;;;;;5053826;28;20021;-87
2023/10/04 18:04:35;;;;;;;19.33;17.33;;;;;;;;;;5053925;28;20053;-86
2023/10/04 18:07:00;;;;;;;21.70;19.40;;;;;;;;;;5053810;28;20107;-88
2023/10/04 18:09:27;;;;;;;19.90;17.80;;;;;;;;;;5052731;28;20408;-88
2023/10/04 18:11:52;;;;;;;19.77;17.77;;;;;;;;;;5054286;28;20028;-88
2023/10/04 18:14:19;;;;;;;19.70;17.60;;;;;;;;;;5052805;28;20375;-85
2023/10/04 18:16:45;;;;;;;18.80;17.00;;;;;;;;;;5053970;28;20044;-90
2023/10/04 18:19:10;;;;;;;21.77;17.10;;;;;;;;;;5053855;28;20021;-89
2023/10/04 18:21:36;;;;;;;18.67;16.92;;;;;;;;;;5053682;28;20064;-88
2023/10/04 18:24:02;;;;;;;18.20;16.08;;;;;;;;;;5053377;28;20033;-86
2023/10/04 18:26:27;;;;;;;18.50;16.65;;;;;;;;;;5053644;28;20356;-87
2023/10/04 18:28:54;;;;;;;18.77;16.63;;;;;;;;;;5052122;28;20029;-87
2023/10/04 18:31:20;;;;;;;19.20;17.35;;;;;;;;;;5053750;28;20021;-87
2023/10/04 18:33:46;;;;;;;19.27;17.27;;;;;;;;;;5053287;28;20029;-87
2023/10/04 18:36:18;;;;;;;20.88;18.75;;;;;;;;;;5051890;28;20617;-87
2023/10/04 18:38:44;;;;;;;19.08;17.25;;;;;;;;;;5053548;28;20064;-86
2023/10/04 18:41:13;;;;;;;18.80;16.85;;;;;;;;;;5056303;28;20021;-87
2023/10/04 19:37:03;;;;;;;17.83;15.60;;;;;;;;;;5538247;22;20402;-89
2023/10/04 19:39:29;;;;;;;17.25;15.45;;;;;;;;;;5054501;28;20044;-89
2023/10/04 19:41:54;;;;;;;17.25;15.25;;;;;;;;;;5056559;28;20536;-91
2023/10/04 19:44:20;;;;;;;17.90;16.10;;;;;;;;;;5057093;28;20035;-91
2023/10/04 19:46:46;;;;;;;20.52;18.08;;;;;;;;;;5056909;28;20083;-92
2023/10/04 19:49:13;;;;;;;18.17;16.30;;;;;;;;;;5056549;28;20025;-90
2023/10/04 19:51:38;;;;;;;19.52;17.42;;;;;;;;;;5053996;28;20037;-91
2023/10/04 19:54:05;;;;;;;18.27;16.38;;;;;;;;;;5056783;28;20517;-91
2023/10/04 19:56:31;;;;;;;17.83;15.80;;;;;;;;;;5056235;28;20471;-91
2023/10/04 19:58:57;;;;;;;17.88;15.63;;;;;;;;;;5055082;28;20031;-91
2023/10/04 20:01:23;;;;;;;17.08;15.05;;;;;;;;;;5055959;28;20119;-91
2023/10/04 20:03:48;;;;;;;19.05;16.77;;;;;;;;;;5056170;28;20162;-91
2023/10/04 20:06:16;;;;;;;17.38;15.68;;;;;;;;;;5055055;28;20035;-91
2023/10/04 20:08:42;;;;;;;17.52;15.75;;;;;;;;;;5056355;28;20044;-91
2023/10/04 20:11:07;;;;;;;17.80;15.95;;;;;;;;;;5055922;28;20025;-92
2023/10/04 20:13:34;;;;;;;18.15;16.35;;;;;;;;;;5055943;28;20029;-91
2023/10/04 20:16:06;;;;;;;18.25;15.95;;;;;;;;;;5054663;28;20024;-92
2023/10/04 20:18:32;;;;;;;16.48;14.95;;;;;;;;;;5054573;28;20051;-89
2023/10/04 20:20:58;;;;;;;17.65;15.85;;;;;;;;;;5055659;28;20035;-90
2023/10/04 20:23:27;;;;;;;17.75;15.95;;;;;;;;;;5054419;28;20106;-89
2023/10/04 20:25:56;;;;;;;19.15;16.58;;;;;;;;;;5055647;28;20047;-91
2023/10/04 20:28:22;;;;;;;16.65;14.95;;;;;;;;;;5054337;28;20356;-90
2023/10/04 20:30:48;;;;;;;18.30;16.33;;;;;;;;;;5055710;28;20035;-90
2023/10/04 20:33:14;;;;;;;16.48;14.77;;;;;;;;;;5054474;28;20029;-90
2023/10/04 20:35:40;;;;;;;17.83;15.18;;;;;;;;;;5055286;28;20490;-89
2023/10/04 20:38:06;;;;;;;17.38;15.57;;;;;;;;;;5055554;28;20048;-91
2023/10/04 20:40:32;;;;;;;17.20;15.40;;;;;;;;;;5054104;28;20025;-90
2023/10/04 20:43:00;;;;;;;16.83;15.20;;;;;;;;;;5055498;28;20029;-90
2023/10/04 20:45:26;;;;;;;18.27;16.35;;;;;;;;;;5055252;28;20028;-89
2023/10/04 20:47:52;;;;;;;17.80;15.73;;;;;;;;;;5054999;28;20025;-91
2023/10/04 20:50:18;;;;;;;16.92;15.02;;;;;;;;;;5053772;28;20120;-90
2023/10/04 20:52:43;;;;;;;18.23;16.52;;;;;;;;;;5053790;28;20071;-90
2023/10/04 20:55:09;;;;;;;18.10;16.23;;;;;;;;;;5054993;28;20032;-90
2023/10/04 20:57:35;;;;;;;16.95;14.15;;;;;;;;;;5054952;28;20028;-90
2023/10/04 21:00:01;;;;;;;18.45;15.80;;;;;;;;;;5053614;28;20017;-90
2023/10/04 21:02:27;;;;;;;17.45;14.52;;;;;;;;;;5054313;28;20021;-89
2023/10/04 21:04:53;;;;;;;16.15;14.45;;;;;;;;;;5054998;28;20028;-89
2023/10/04 21:07:18;;;;;;;16.05;14.35;;;;;;;;;;5054013;28;20087;-91
2023/10/04 21:09:44;;;;;;;16.05;14.43;;;;;;;;;;5054785;28;20387;-92
2023/10/04 21:12:10;;;;;;;15.65;14.00;;;;;;;;;;5053804;28;20025;-91
2023/10/04 21:14:39;;;;;;;15.27;13.70;;;;;;;;;;5053499;28;20420;-91
2023/10/04 21:17:06;;;;;;;15.30;13.65;;;;;;;;;;5053834;28;20112;-91
2023/10/04 21:19:32;;;;;;;15.23;13.63;;;;;;;;;;5053359;28;20039;-90
2023/10/04 21:22:01;;;;;;;15.55;13.95;;;;;;;;;;5053759;28;20060;-92
2023/10/04 21:24:26;;;;;;;;;;;;;;;;;;5054506;28;20039;-91
2023/10/04 21:26:53;;;;;;;15.70;13.07;;;;;;;;;;5053544;28;19912;-91
2023/10/04 21:29:19;;;;;;;14.63;13.13;;;;;;;;;;5054130;28;20124;-91
2023/10/04 21:31:45;;;;;;;14.27;12.65;;;;;;;;;;5053411;28;20033;-91
2023/10/04 21:34:12;;;;;;;16.13;14.40;;;;;;;;;;5053360;28;20120;-91
2023/10/04 21:36:46;;;;;;;14.57;13.05;;;;;;;;;;5053343;28;20029;-91
2023/10/04 21:39:16;;;;;;;14.10;12.60;;;;;;;;;;5053297;28;20502;-92
2023/10/04 21:41:52;;;;;;;16.50;12.73;;;;;;;;;;5054751;28;20057;-91
2023/10/04 21:44:27;;;;;;;14.25;12.77;;;;;;;;;;5052861;28;20033;-91
2023/10/04 21:46:56;;;;;;;14.82;13.32;;;;;;;;;;5053222;28;20578;-91
2023/10/04 21:49:22;;;;;;;15.33;13.77;;;;;;;;;;5053092;28;20037;-91
2023/10/04 21:51:54;;;;;;;14.15;12.68;;;;;;;;;;5054116;28;20119;-91
2023/10/04 21:54:24;;;;;;;15.52;13.85;;;;;;;;;;5052864;28;20029;-91
2023/10/04 21:56:51;;;;;;;13.63;12.30;;;;;;;;;;5052713;28;20116;-91
2023/10/04 21:59:19;;;;;;;14.90;13.20;;;;;;;;;;5053896;28;20021;-90
2023/10/04 22:01:50;;;;;;;16.00;13.50;;;;;;;;;;5052707;28;20040;-91
2023/10/04 22:04:20;;;;;;;15.80;13.32;;;;;;;;;;5052593;28;20036;-90
2023/10/04 22:06:46;;;;;;;13.32;12.02;;;;;;;;;;5052848;28;20365;-89
2023/10/04 22:09:18;;;;;;;15.23;13.55;;;;;;;;;;5053703;28;20027;-88
2023/10/04 22:11:45;;;;;;;13.85;12.32;;;;;;;;;;5052944;28;20032;-91
2023/10/04 22:14:12;;;;;;;13.98;12.57;;;;;;;;;;5053797;28;20125;-91
2023/10/04 22:16:38;;;;;;;15.25;13.07;;;;;;;;;;5053739;28;20036;-91
2023/10/04 22:19:07;;;;;;;14.27;12.77;;;;;;;;;;5052732;28;20031;-91
2023/10/04 22:21:33;;;;;;;13.68;12.20;;;;;;;;;;5052890;28;20047;-91
2023/10/04 22:23:59;;;;;;;14.70;13.20;;;;;;;;;;5053786;28;20464;-91
2023/10/04 22:26:26;;;;;;;13.63;12.07;;;;;;;;;;5053267;28;20035;-90
2023/10/04 22:28:52;;;;;;;14.45;12.95;;;;;;;;;;5052579;28;20025;-92
2023/10/04 22:31:18;;;;;;;17.75;13.40;;;;;;;;;;5052370;28;20544;-90
2023/10/04 22:33:44;;;;;;;15.02;12.65;;;;;;;;;;5054073;28;20074;-90
2023/10/04 22:36:10;;;;;;;15.00;12.30;;;;;;;;;;5052037;28;20041;-90
2023/10/04 22:38:35;;;;;;;13.88;12.07;;;;;;;;;;5051350;28;20041;-90
2023/10/04 22:41:01;;;;;;;14.68;13.18;;;;;;;;;;5051115;28;20598;-90
2023/10/04 22:43:27;;;;;;;14.52;12.00;;;;;;;;;;5052652;28;20036;-90
2023/10/04 22:45:55;;;;;;;13.93;12.10;;;;;;;;;;5051902;28;20388;-90
2023/10/04 22:48:20;;;;;;;14.23;12.00;;;;;;;;;;5052587;28;20029;-90
2023/10/04 22:50:46;;;;;;;15.98;12.60;;;;;;;;;;5052486;28;20025;-90
2023/10/04 22:53:12;;;;;;;13.98;12.55;;;;;;;;;;5051092;28;20025;-90
2023/10/04 22:55:37;;;;;;;13.30;11.90;;;;;;;;;;5051008;28;20086;-90
2023/10/04 22:58:05;;;;;;;14.10;12.60;;;;;;;;;;5051143;28;20090;-88
2023/10/04 23:05:43;;;;;;;13.90;12.30;;;;;;;;;;5369517;22;1168351;-85
